createdAt,value
2023-05-09T00:01:45.479Z,3.45
2023-05-09T00:04:50.342Z,3.67
2023-05-09T00:07:52.445Z,3.30
2023-05-09T00:10:54.279Z,3.20
2023-05-09T00:13:55.993Z,3.95
2023-05-09T00:17:00.219Z,4.03
2023-05-09T00:20:05.290Z,3.80
2023-05-09T00:23:07.691Z,4.30
2023-05-09T00:26:10.579Z,3.92
2023-05-09T00:29:13.946Z,3.85
2023-05-09T00:32:15.875Z,3.75
2023-05-09T00:35:17.847Z,3.90
2023-05-09T00:38:19.678Z,3.67
2023-05-09T00:41:21.783Z,4.03
2023-05-09T00:44:23.613Z,3.72
2023-05-09T00:47:27.448Z,3.97
2023-05-09T00:50:29.259Z,3.88
2023-05-09T00:53:31.338Z,3.42
2023-05-09T00:56:33.407Z,3.88
2023-05-09T00:59:36.052Z,3.45
2023-05-09T01:02:38.020Z,3.70
2023-05-09T01:06:07.025Z,3.50
2023-05-09T01:09:30.349Z,3.78
2023-05-09T01:12:49.807Z,3.20
2023-05-09T01:16:01.477Z,3.70
2023-05-09T01:19:36.731Z,3.97
2023-05-09T01:22:46.142Z,3.20
2023-05-09T01:25:47.858Z,3.65
2023-05-09T01:29:09.997Z,3.95
2023-05-09T01:32:21.156Z,3.70
2023-05-09T01:35:26.505Z,3.33
2023-05-09T01:38:32.240Z,4.10
2023-05-09T01:41:37.697Z,3.90
2023-05-09T01:44:43.749Z,4.57
2023-05-09T01:47:48.088Z,4.32
2023-05-09T01:50:50.104Z,3.95
2023-05-09T01:53:55.324Z,3.55
2023-05-09T01:56:59.238Z,3.30
2023-05-09T02:00:03.869Z,3.85
2023-05-09T02:03:15.206Z,4.07
2023-05-09T02:06:21.140Z,3.63
2023-05-09T02:09:23.107Z,4.00
2023-05-09T02:12:25.171Z,3.70
2023-05-09T02:15:29.299Z,3.60
2023-05-09T02:18:32.777Z,3.67
2023-05-09T02:21:35.884Z,3.97
2023-05-09T02:24:38.006Z,3.63
2023-05-09T02:27:40.681Z,4.20
2023-05-09T02:30:45.844Z,4.80
2023-05-09T02:33:48.023Z,4.15
2023-05-09T02:50:33.980Z,4.25
2023-05-09T02:53:35.972Z,3.78
2023-05-09T02:56:38.160Z,4.00
2023-05-09T02:59:39.899Z,3.47
2023-05-09T03:02:41.686Z,4.07
2023-05-09T03:05:50.068Z,3.80
2023-05-09T03:08:51.840Z,3.92
2023-05-09T03:11:56.034Z,3.67
2023-05-09T03:14:57.836Z,3.75
2023-05-09T03:17:59.944Z,3.58
2023-05-09T03:21:01.802Z,4.30
2023-05-09T03:24:07.691Z,3.80
2023-05-09T03:27:11.644Z,3.40
2023-05-09T03:30:13.975Z,4.15
2023-05-09T03:33:17.276Z,3.78
2023-05-09T03:36:19.384Z,3.78
2023-05-09T03:39:21.234Z,4.38
2023-05-09T03:42:29.117Z,3.88
2023-05-09T03:45:36.180Z,4.03
2023-05-09T03:48:39.580Z,3.88
2023-05-09T03:51:42.288Z,3.80
2023-05-09T03:54:51.370Z,3.95
2023-05-09T03:57:53.925Z,4.10
2023-05-09T04:00:56.541Z,4.40
2023-05-09T04:04:00.603Z,4.28
2023-05-09T04:07:04.512Z,4.70
2023-05-09T04:10:07.641Z,4.60
2023-05-09T04:13:10.051Z,4.18
2023-05-09T04:16:12.488Z,4.32
2023-05-09T04:19:14.880Z,4.18
2023-05-09T04:22:16.771Z,4.35
2023-05-09T04:25:20.595Z,4.55
2023-05-09T04:28:23.326Z,4.40
2023-05-09T04:31:27.185Z,4.63
2023-05-09T04:34:29.742Z,4.80
2023-05-09T04:37:35.806Z,4.25
2023-05-09T04:40:38.083Z,4.55
2023-05-09T04:43:39.923Z,5.05
2023-05-09T04:46:42.396Z,4.60
2023-05-09T04:49:44.245Z,4.60
2023-05-09T04:52:46.130Z,4.45
2023-05-09T04:55:48.033Z,4.70
2023-05-09T04:58:50.469Z,4.53
2023-05-09T05:01:52.308Z,4.57
2023-05-09T05:05:06.174Z,4.47
2023-05-09T05:08:14.153Z,4.50
2023-05-09T05:11:20.667Z,4.65
2023-05-09T05:14:22.752Z,4.70
2023-05-09T05:17:24.902Z,4.80
2023-05-09T05:20:27.434Z,4.60
2023-05-09T05:23:29.259Z,5.10
2023-05-09T05:26:34.252Z,4.78
2023-05-09T05:29:36.713Z,5.05
2023-05-09T05:32:38.907Z,4.47
2023-05-09T05:35:41.074Z,4.78
2023-05-09T05:38:42.789Z,4.68
2023-05-09T05:41:44.675Z,5.20
2023-05-09T05:44:46.826Z,4.68
2023-05-09T05:47:48.862Z,5.20
2023-05-09T05:50:51.441Z,5.07
2023-05-09T05:53:57.151Z,4.88
2023-05-09T05:57:00.234Z,4.97
2023-05-09T06:00:02.808Z,4.53
2023-05-09T06:03:16.096Z,5.13
2023-05-09T06:06:32.362Z,4.55
2023-05-09T06:09:34.134Z,4.68
2023-05-09T06:12:36.100Z,5.03
2023-05-09T06:15:37.857Z,4.78
2023-05-09T06:18:40.288Z,4.65
2023-05-09T06:21:42.057Z,4.82
2023-05-09T06:24:43.807Z,4.50
2023-05-09T06:27:45.618Z,4.03
2023-05-09T06:30:47.316Z,3.85
2023-05-09T06:33:49.065Z,3.65
2023-05-09T06:36:50.931Z,3.88
2023-05-09T06:39:54.645Z,3.88
2023-05-09T06:42:56.499Z,3.38
2023-05-09T06:45:58.296Z,3.50
2023-05-09T06:49:02.034Z,3.20
2023-05-09T06:52:03.888Z,2.83
2023-05-09T06:55:06.229Z,2.75
2023-05-09T06:58:08.158Z,2.58
2023-05-09T07:01:09.985Z,2.80
2023-05-09T07:04:11.749Z,2.80
2023-05-09T07:07:13.454Z,2.60
2023-05-09T07:10:15.133Z,2.35
2023-05-09T07:13:16.932Z,2.63
2023-05-09T07:16:18.764Z,3.22
2023-05-09T07:19:20.714Z,2.10
2023-05-09T07:22:22.489Z,2.40
2023-05-09T07:25:24.386Z,2.42
2023-05-09T07:28:26.332Z,2.40
2023-05-09T07:31:28.296Z,2.75
2023-05-09T07:34:29.981Z,2.42
2023-05-09T07:37:31.937Z,2.83
2023-05-09T07:40:36.439Z,2.70
2023-05-09T07:43:38.334Z,2.50
2023-05-09T07:46:42.054Z,2.28
2023-05-09T07:49:46.445Z,2.42
2023-05-09T07:52:49.715Z,2.47
2023-05-09T07:55:51.518Z,2.30
2023-05-09T07:58:55.068Z,2.63
2023-05-09T08:01:57.686Z,2.50
2023-05-09T08:04:59.508Z,2.33
2023-05-09T08:08:01.206Z,1.90
2023-05-09T08:11:02.860Z,2.63
2023-05-09T08:14:04.700Z,2.58
2023-05-09T08:17:06.533Z,3.03
2023-05-09T08:20:12.222Z,2.60
2023-05-09T08:23:14.229Z,2.80
2023-05-09T08:26:16.211Z,2.30
2023-05-09T08:29:18.163Z,2.40
2023-05-09T08:32:20.204Z,2.50
2023-05-09T08:35:22.169Z,2.50
2023-05-09T08:38:24.856Z,2.40
2023-05-09T08:41:30.158Z,2.40
2023-05-09T08:44:32.362Z,2.67
2023-05-09T08:47:44.643Z,2.70
2023-05-09T08:50:47.237Z,2.40
2023-05-09T08:53:49.101Z,2.10
2023-05-09T08:56:51.635Z,2.40
2023-05-09T08:59:55.088Z,2.78
2023-05-09T09:03:00.881Z,2.25
2023-05-09T09:06:03.238Z,2.55
2023-05-09T09:09:08.767Z,2.30
2023-05-09T09:12:11.678Z,2.42
2023-05-09T09:15:17.956Z,2.35
2023-05-09T09:18:23.906Z,2.28
2023-05-09T09:21:26.308Z,2.63
2023-05-09T09:24:28.244Z,2.13
2023-05-09T09:27:30.022Z,2.22
2023-05-09T09:30:32.643Z,2.28
2023-05-09T09:33:35.813Z,2.22
2023-05-09T09:36:37.542Z,2.55
2023-05-09T09:39:54.200Z,2.20
2023-05-09T09:42:56.017Z,2.60
2023-05-09T09:46:01.493Z,2.30
2023-05-09T09:49:03.298Z,2.60
2023-05-09T09:52:05.046Z,2.58
2023-05-09T09:55:07.363Z,3.00
2023-05-09T09:58:21.940Z,2.55
2023-05-09T10:01:24.721Z,2.03
2023-05-09T10:04:30.082Z,2.38
2023-05-09T10:07:34.405Z,2.50
2023-05-09T10:10:37.768Z,2.17
2023-05-09T10:13:39.592Z,2.30
2023-05-09T10:16:44.232Z,2.33
2023-05-09T10:19:49.341Z,2.30
2023-05-09T10:22:55.948Z,2.60
2023-05-09T10:26:29.035Z,1.93
2023-05-09T10:29:35.362Z,2.38
2023-05-09T10:33:03.300Z,2.38
2023-05-09T10:36:06.549Z,2.40
2023-05-09T10:39:08.400Z,2.40
2023-05-09T10:42:10.839Z,2.28
2023-05-09T10:45:13.507Z,2.50
2023-05-09T10:48:16.293Z,2.25
2023-05-09T10:51:18.428Z,2.40
2023-05-09T10:54:30.870Z,2.28
2023-05-09T10:57:33.019Z,3.20
2023-05-09T11:00:41.598Z,2.63
2023-05-09T11:03:57.091Z,2.25
2023-05-09T11:07:00.546Z,2.58
2023-05-09T11:10:10.349Z,2.60
2023-05-09T11:13:12.219Z,2.60
2023-05-09T11:16:14.099Z,2.42
2023-05-09T11:19:34.192Z,2.20
2023-05-09T11:22:44.106Z,2.35
2023-05-09T11:25:47.992Z,2.20
2023-05-09T11:28:54.201Z,2.50
2023-05-09T11:32:06.465Z,2.20
2023-05-09T11:35:15.800Z,2.28
2023-05-09T11:38:21.493Z,2.30
2023-05-09T11:41:24.164Z,2.42
2023-05-09T11:44:27.946Z,2.42
2023-05-09T11:47:30.957Z,2.53
2023-05-09T11:50:33.113Z,2.45
2023-05-09T11:53:36.279Z,3.15
2023-05-09T11:56:40.388Z,2.60
2023-05-09T11:59:42.168Z,2.97
2023-05-09T12:02:45.886Z,2.60
2023-05-09T12:05:48.610Z,2.70
2023-05-09T12:08:50.647Z,2.55
2023-05-09T12:11:52.627Z,2.60
2023-05-09T12:14:54.794Z,2.35
2023-05-09T12:18:06.912Z,2.50
2023-05-09T12:21:08.755Z,2.38
2023-05-09T12:24:10.535Z,2.53
2023-05-09T12:27:12.764Z,3.47
2023-05-09T12:30:16.229Z,2.85
2023-05-09T12:33:18.919Z,3.03
2023-05-09T12:36:21.377Z,2.78
2023-05-09T12:39:23.262Z,2.40
2023-05-09T12:42:28.605Z,2.75
2023-05-09T12:45:33.699Z,2.10
2023-05-09T12:48:38.048Z,2.65
2023-05-09T12:51:48.438Z,2.13
2023-05-09T12:54:52.866Z,2.20
2023-05-09T12:58:02.567Z,2.30
2023-05-09T13:01:05.734Z,2.58
2023-05-09T13:04:07.763Z,2.30
2023-05-09T13:07:12.679Z,2.25
2023-05-09T13:10:21.556Z,2.20
2023-05-09T13:13:26.716Z,2.80
2023-05-09T13:16:29.025Z,2.50
2023-05-09T13:19:30.755Z,2.65
2023-05-09T13:22:32.975Z,2.88
2023-05-09T13:25:34.789Z,2.70
2023-05-09T13:28:36.605Z,2.50
2023-05-09T13:31:38.392Z,1.92
2023-05-09T13:34:41.490Z,2.15
2023-05-09T13:37:43.815Z,1.95
2023-05-09T13:40:45.844Z,2.60
2023-05-09T13:43:48.177Z,2.10
2023-05-09T13:46:50.624Z,2.20
2023-05-09T13:49:52.831Z,2.35
2023-05-09T13:52:54.564Z,2.00
2023-05-09T13:55:56.304Z,2.47
2023-05-09T13:58:58.188Z,2.55
2023-05-09T14:02:01.225Z,2.40
2023-05-09T14:05:04.358Z,2.65
2023-05-09T14:08:07.958Z,2.72
2023-05-09T14:11:09.661Z,2.47
2023-05-09T14:14:11.644Z,2.30
2023-05-09T14:17:13.466Z,2.10
2023-05-09T14:20:18.286Z,2.75
2023-05-09T14:23:20.362Z,2.50
2023-05-09T14:26:22.275Z,2.60
2023-05-09T14:29:23.962Z,2.40
2023-05-09T14:32:25.686Z,2.30
2023-05-09T14:35:27.743Z,2.20
2023-05-09T14:38:29.825Z,2.30
2023-05-09T14:41:31.886Z,2.10
2023-05-09T14:44:33.610Z,2.30
2023-05-09T14:47:35.422Z,2.10
2023-05-09T14:50:37.321Z,2.15
2023-05-09T14:53:42.146Z,2.53
2023-05-09T14:56:44.312Z,2.20
2023-05-09T14:59:46.155Z,2.33
2023-05-09T15:02:47.951Z,2.90
2023-05-09T15:05:50.784Z,2.60
2023-05-09T15:08:52.652Z,2.45
2023-05-09T15:11:55.114Z,2.95
2023-05-09T15:15:11.650Z,2.47
2023-05-09T15:18:15.942Z,2.55
2023-05-09T15:21:17.796Z,2.53
2023-05-09T15:24:19.524Z,2.40
2023-05-09T15:27:21.531Z,2.30
2023-05-09T15:30:23.455Z,2.40
2023-05-09T15:33:25.571Z,2.30
2023-05-09T15:36:30.130Z,2.45
2023-05-09T15:39:34.793Z,2.30
2023-05-09T15:42:37.679Z,2.42
2023-05-09T15:45:45.267Z,3.22
2023-05-09T15:48:47.303Z,2.30
2023-05-09T15:51:49.093Z,2.80
2023-05-09T15:54:50.958Z,3.17
2023-05-09T15:57:52.783Z,3.30
2023-05-09T16:00:54.534Z,2.53
2023-05-09T16:03:56.573Z,2.38
2023-05-09T16:06:58.725Z,3.13
2023-05-09T16:10:00.661Z,3.00
2023-05-09T16:13:02.423Z,2.60
2023-05-09T16:16:04.572Z,2.78
2023-05-09T16:19:07.206Z,3.45
2023-05-09T16:22:09.070Z,5.00
2023-05-09T16:25:11.433Z,3.78
2023-05-09T16:28:13.333Z,3.20
2023-05-09T16:31:14.980Z,3.95
2023-05-09T16:34:16.866Z,3.65
2023-05-09T16:37:19.105Z,4.68
2023-05-09T16:40:21.338Z,4.97
2023-05-09T16:43:23.016Z,5.50
2023-05-09T16:46:24.882Z,4.85
2023-05-09T16:49:26.828Z,6.20
2023-05-09T16:52:29.579Z,4.57
2023-05-09T16:55:31.436Z,4.50
2023-05-09T16:58:34.429Z,5.35
2023-05-09T17:01:37.857Z,5.82
2023-05-09T17:04:39.618Z,7.05
2023-05-09T17:07:41.547Z,7.05
2023-05-09T17:10:43.239Z,5.32
2023-05-09T17:13:45.117Z,4.00
2023-05-09T17:16:46.888Z,3.78
2023-05-09T17:19:49.011Z,3.92
2023-05-09T17:22:50.696Z,4.07
2023-05-09T17:25:52.519Z,4.13
2023-05-09T17:28:54.266Z,4.82
2023-05-09T17:32:02.293Z,5.20
2023-05-09T17:35:05.013Z,4.53
2023-05-09T17:38:06.835Z,4.22
2023-05-09T17:41:08.588Z,5.00
2023-05-09T17:44:11.308Z,5.18
2023-05-09T17:47:14.277Z,5.50
2023-05-09T17:50:17.315Z,4.88
2023-05-09T17:53:19.459Z,4.57
2023-05-09T17:56:22.482Z,7.03
2023-05-09T17:59:24.320Z,7.63
2023-05-09T18:02:27.391Z,7.15
2023-05-09T18:05:29.319Z,6.78
2023-05-09T18:08:31.160Z,5.82
2023-05-09T18:11:33.396Z,5.72
2023-05-09T18:14:35.847Z,5.05
2023-05-09T18:17:37.981Z,5.07
2023-05-09T18:20:39.850Z,6.00
2023-05-09T18:23:41.685Z,6.05
2023-05-09T18:26:43.557Z,6.15
2023-05-09T18:29:47.487Z,5.65
2023-05-09T18:32:49.379Z,6.85
2023-05-09T18:35:52.298Z,6.18
2023-05-09T18:38:54.231Z,5.35
2023-05-09T18:41:55.975Z,6.10
2023-05-09T18:45:00.628Z,5.57
2023-05-09T18:48:03.054Z,5.63
2023-05-09T18:51:05.056Z,5.65
2023-05-09T18:54:07.975Z,5.05
2023-05-09T18:57:09.971Z,4.32
2023-05-09T19:00:12.680Z,4.82
2023-05-09T19:03:14.439Z,4.45
2023-05-09T19:06:16.578Z,4.80
2023-05-09T19:09:18.525Z,4.68
2023-05-09T19:12:20.427Z,4.68
2023-05-09T19:15:23.327Z,4.60
2023-05-09T19:18:25.169Z,4.95
2023-05-09T19:21:28.365Z,4.75
2023-05-09T19:24:32.135Z,5.05
2023-05-09T19:27:33.937Z,5.40
2023-05-09T19:30:36.118Z,5.05
2023-05-09T19:33:38.264Z,5.53
2023-05-09T19:36:40.173Z,5.20
2023-05-09T19:39:41.932Z,5.28
2023-05-09T19:42:43.637Z,5.55
2023-05-09T19:45:45.571Z,4.75
2023-05-09T19:48:47.392Z,5.10
2023-05-09T19:51:49.314Z,5.78
2023-05-09T19:54:51.181Z,5.38
2023-05-09T19:57:53.083Z,5.00
2023-05-09T20:00:54.887Z,4.90
2023-05-09T20:03:57.005Z,4.60
2023-05-09T20:06:58.921Z,5.00
2023-05-09T20:10:00.678Z,4.90
2023-05-09T20:13:04.410Z,4.93
2023-05-09T20:16:06.541Z,5.25
2023-05-09T20:19:09.055Z,4.80
2023-05-09T20:22:11.598Z,4.68
2023-05-09T20:25:13.976Z,3.88
2023-05-09T20:28:20.149Z,4.30
2023-05-09T20:31:21.950Z,4.03
2023-05-09T20:34:24.862Z,4.25
2023-05-09T20:37:26.635Z,4.88
2023-05-09T20:40:28.705Z,4.47
2023-05-09T20:43:30.674Z,4.00
2023-05-09T20:46:32.597Z,3.47
2023-05-09T20:49:34.394Z,3.40
2023-05-09T20:52:36.262Z,4.10
2023-05-09T20:55:38.006Z,3.55
2023-05-09T20:58:39.776Z,3.65
2023-05-09T21:01:42.010Z,3.28
2023-05-09T21:04:44.491Z,3.55
2023-05-09T21:07:46.363Z,3.53
2023-05-09T21:10:51.506Z,3.22
2023-05-09T21:13:53.279Z,3.53
2023-05-09T21:16:58.107Z,3.78
2023-05-09T21:19:59.910Z,4.32
2023-05-09T21:23:01.677Z,4.25
2023-05-09T21:26:03.503Z,3.80
2023-05-09T21:29:05.416Z,3.85
2023-05-09T21:32:07.203Z,3.67
2023-05-09T21:35:12.715Z,3.63
2023-05-09T21:38:14.582Z,3.83
2023-05-09T21:41:16.397Z,3.75
2023-05-09T21:44:18.128Z,4.38
2023-05-09T21:47:19.935Z,4.00
2023-05-09T21:50:21.942Z,3.72
2023-05-09T21:53:23.785Z,3.55
2023-05-09T21:56:25.488Z,3.70
2023-05-09T21:59:27.286Z,3.90
2023-05-09T22:02:29.239Z,3.92
2023-05-09T22:05:31.423Z,4.15
2023-05-09T22:08:33.316Z,4.20
2023-05-09T22:11:35.397Z,3.85
2023-05-09T22:14:45.177Z,3.58
2023-05-09T22:17:54.657Z,3.80
2023-05-09T22:20:56.487Z,3.83
2023-05-09T22:23:58.274Z,3.78
2023-05-09T22:27:00.036Z,3.90
2023-05-09T22:30:02.832Z,3.50
2023-05-09T22:33:04.774Z,3.50
2023-05-09T22:36:07.225Z,3.85
2023-05-09T22:39:12.019Z,3.50
2023-05-09T22:42:13.754Z,3.60
2023-05-09T22:45:15.628Z,3.85
2023-05-09T22:48:17.484Z,3.80
2023-05-09T22:51:19.180Z,3.45
2023-05-09T22:54:22.299Z,3.83
2023-05-09T22:57:24.120Z,3.60
2023-05-09T23:00:25.874Z,3.72
2023-05-09T23:03:27.739Z,3.35
2023-05-09T23:06:29.673Z,3.30
2023-05-09T23:09:31.537Z,3.35
2023-05-09T23:12:33.372Z,3.10
2023-05-09T23:15:35.535Z,3.15
2023-05-09T23:18:37.220Z,3.42
2023-05-09T23:21:39.030Z,3.45
2023-05-09T23:24:41.304Z,3.55
2023-05-09T23:27:44.657Z,3.38
2023-05-09T23:30:46.302Z,3.60
2023-05-09T23:33:48.005Z,3.78
2023-05-09T23:36:49.747Z,3.17
2023-05-09T23:39:51.525Z,3.60
2023-05-09T23:42:53.345Z,3.83
2023-05-09T23:45:56.749Z,3.70
2023-05-09T23:48:58.584Z,3.90
2023-05-09T23:52:00.365Z,3.70
2023-05-09T23:55:02.375Z,3.88
2023-05-09T23:58:04.255Z,4.20
